Wetterdaten: Woche 02.05.11 - 08.05.11 (KW18)
Datum Zeit Temp. A. Feuchte A. Luftdruck Regen Wind Richtung Taupunkt Windchill Windben
02.05.2011 00:00 10,4 C 75 % 1008,8 hPa 0,0 l/m 1,3 km/h N-NW 6,2 C 10,4 C 4,8 km/h
02.05.2011 01:00 9,8 C 76 % 1008,9 hPa 0,0 l/m 1,1 km/h N-NW 5,8 C 9,8 C 3,6 km/h
02.05.2011 02:00 9,1 C 78 % 1009,0 hPa 0,0 l/m 1,3 km/h N-NW 5,5 C 9,1 C 4,4 km/h
02.05.2011 03:00 8,5 C 80 % 1009,1 hPa 0,0 l/m 0,5 km/h N 5,2 C 8,5 C 2,8 km/h
02.05.2011 04:00 8,0 C 81 % 1009,3 hPa 0,0 l/m 0,3 km/h N 5,0 C 8,0 C 2,8 km/h
02.05.2011 05:00 7,5 C 82 % 1009,7 hPa 0,0 l/m 0,0 km/h N 4,6 C 7,5 C 0,0 km/h
02.05.2011 06:00 7,1 C 83 % 1010,1 hPa 0,0 l/m 0,0 km/h N 4,4 C 7,1 C 0,8 km/h
02.05.2011 07:00 7,7 C 83 % 1010,0 hPa 0,0 l/m 0,4 km/h N-NO 5,0 C 7,7 C 2,8 km/h
02.05.2011 08:00 9,2 C 80 % 1010,0 hPa 0,0 l/m 1,1 km/h N-NW 5,9 C 9,2 C 6,0 km/h
02.05.2011 09:00 11,3 C 67 % 1009,9 hPa 0,0 l/m 1,0 km/h N-NO 5,2 C 11,3 C 4,4 km/h
02.05.2011 10:00 14,3 C 53 % 1009,8 hPa 0,0 l/m 1,8 km/h O-NO 4,6 C 14,3 C 6,9 km/h
02.05.2011 11:00 15,8 C 43 % 1009,6 hPa 0,0 l/m 2,4 km/h O 3,0 C 15,8 C 7,6 km/h
02.05.2011 12:00 17,6 C 39 % 1009,3 hPa 0,0 l/m 1,4 km/h O-NO 3,5 C 17,6 C 7,2 km/h
02.05.2011 13:00 18,1 C 37 % 1008,8 hPa 0,0 l/m 1,1 km/h O-NO 3,2 C 18,1 C 6,0 km/h
02.05.2011 14:00 18,1 C 37 % 1008,3 hPa 0,0 l/m 1,0 km/h O-NO 3,1 C 18,1 C 4,8 km/h
02.05.2011 15:00 17,7 C 39 % 1007,7 hPa 0,0 l/m 1,6 km/h O 3,5 C 17,7 C 6,4 km/h
02.05.2011 16:00 18,0 C 39 % 1007,3 hPa 0,0 l/m 1,3 km/h O 4,0 C 18,0 C 6,0 km/h
02.05.2011 17:00 17,9 C 40 % 1006,8 hPa 0,0 l/m 1,0 km/h O 4,1 C 17,9 C 4,8 km/h
02.05.2011 18:00 16,7 C 44 % 1006,5 hPa 0,0 l/m 1,3 km/h O 4,2 C 16,7 C 5,2 km/h
02.05.2011 19:00 15,6 C 48 % 1006,4 hPa 0,0 l/m 0,5 km/h N 4,7 C 15,6 C 2,8 km/h
02.05.2011 20:00 14,6 C 53 % 1006,1 hPa 0,0 l/m 0,0 km/h N 5,0 C 14,6 C 0,8 km/h
02.05.2011 21:00 13,7 C 57 % 1006,1 hPa 0,0 l/m 0,0 km/h N 5,3 C 13,7 C 1,2 km/h
02.05.2011 22:00 12,8 C 63 % 1005,8 hPa 0,0 l/m 0,0 km/h N 5,9 C 12,8 C 0,4 km/h
02.05.2011 23:00 12,2 C 65 % 1005,3 hPa 0,0 l/m 0,0 km/h N 5,8 C 12,2 C 0,0 km/h
03.05.2011 00:00 11,6 C 68 % 1004,9 hPa 0,0 l/m 0,0 km/h N 6,0 C 11,6 C 0,0 km/h
03.05.2011 01:00 11,4 C 71 % 1004,6 hPa 0,0 l/m 0,0 km/h N 6,2 C 11,4 C 0,0 km/h
03.05.2011 02:00 11,3 C 79 % 1004,2 hPa 1,6 l/m 0,1 km/h N 7,8 C 11,3 C 2,8 km/h
03.05.2011 03:00 10,6 C 82 % 1003,5 hPa 0,0 l/m 0,0 km/h N 7,6 C 10,6 C 0,0 km/h
03.05.2011 04:00 10,1 C 83 % 1002,8 hPa 0,0 l/m 0,0 km/h N 7,2 C 10,1 C 0,0 km/h
03.05.2011 05:00 9,5 C 83 % 1002,2 hPa 0,0 l/m 0,0 km/h N 6,7 C 9,5 C 0,0 km/h
03.05.2011 06:00 9,3 C 83 % 1001,8 hPa 0,0 l/m 0,0 km/h N 6,5 C 9,3 C 0,0 km/h
03.05.2011 07:00 9,7 C 83 % 1001,7 hPa 0,0 l/m 0,0 km/h N 6,9 C 9,7 C 0,0 km/h
03.05.2011 08:00 11,1 C 82 % 1001,3 hPa 0,0 l/m 0,1 km/h N 8,2 C 11,1 C 1,6 km/h
03.05.2011 09:00 13,3 C 82 % 1001,0 hPa 0,0 l/m 0,3 km/h S-SO 10,2 C 13,3 C 3,6 km/h
03.05.2011 10:00 15,7 C 75 % 1001,4 hPa 0,0 l/m 1,5 km/h S 11,2 C 15,7 C 8,1 km/h
03.05.2011 11:00 13,9 C 70 % 1003,5 hPa 0,0 l/m 7,9 km/h N-NW 8,5 C 13,0 C 22,9 km/h
03.05.2011 12:00 11,4 C 69 % 1004,8 hPa 0,0 l/m 8,1 km/h S-SO 5,9 C 10,3 C 25,7 km/h
03.05.2011 13:00 11,4 C 72 % 1005,8 hPa 0,0 l/m 5,4 km/h N-NW 6,4 C 11,2 C 20,5 km/h
03.05.2011 14:00 11,8 C 68 % 1007,1 hPa 0,0 l/m 6,8 km/h N-NW 6,1 C 11,5 C 20,9 km/h
03.05.2011 15:00 9,9 C 75 % 1008,1 hPa 0,0 l/m 5,4 km/h NO 5,7 C 9,8 C 16,9 km/h
03.05.2011 16:00 9,9 C 71 % 1009,0 hPa 0,0 l/m 7,6 km/h NO 4,9 C 8,8 C 22,1 km/h
03.05.2011 17:00 10,1 C 65 % 1010,2 hPa 0,0 l/m 11,3 km/h N-NW 3,7 C 7,0 C 27,3 km/h
03.05.2011 18:00 9,1 C 65 % 1011,3 hPa 0,0 l/m 10,4 km/h N-NW 2,9 C 6,5 C 26,8 km/h
03.05.2011 19:00 7,6 C 67 % 1012,5 hPa 0,0 l/m 10,5 km/h N-NW 1,8 C 4,6 C 30,6 km/h
03.05.2011 20:00 6,5 C 71 % 1013,6 hPa 0,0 l/m 9,6 km/h N-NW 1,5 C 4,0 C 29,8 km/h
03.05.2011 21:00 5,8 C 72 % 1014,9 hPa 0,0 l/m 8,1 km/h N-NW 1,1 C 4,4 C 26,5 km/h
03.05.2011 22:00 5,4 C 72 % 1015,5 hPa 0,0 l/m 7,2 km/h N-NW 0,7 C 4,8 C 23,3 km/h
03.05.2011 23:00 4,8 C 73 % 1015,8 hPa 0,0 l/m 4,8 km/h N-NW 0,4 C 4,8 C 17,7 km/h
04.05.2011 00:00 4,3 C 76 % 1016,5 hPa 0,0 l/m 3,2 km/h N-NW 0,4 C 4,3 C 12,1 km/h
04.05.2011 01:00 4,4 C 76 % 1016,3 hPa 0,0 l/m 6,4 km/h N-NW 0,6 C 4,5 C 20,9 km/h
04.05.2011 02:00 4,1 C 77 % 1016,4 hPa 0,0 l/m 4,0 km/h N-NW 0,5 C 4,1 C 12,9 km/h
04.05.2011 03:00 3,8 C 78 % 1016,7 hPa 0,0 l/m 1,6 km/h N-NW 0,2 C 3,8 C 8,1 km/h
04.05.2011 04:00 3,7 C 79 % 1017,0 hPa 0,0 l/m 4,0 km/h N-NW 0,3 C 3,7 C 11,3 km/h
04.05.2011 05:00 3,4 C 78 % 1017,3 hPa 0,0 l/m 2,4 km/h N-NW -0,1 C 3,4 C 9,6 km/h
04.05.2011 06:00 3,0 C 79 % 1017,6 hPa 0,0 l/m 1,6 km/h N-NW -0,3 C 3,0 C 7,2 km/h
04.05.2011 07:00 3,7 C 77 % 1018,2 hPa 0,0 l/m 2,4 km/h N-NW 0,0 C 3,7 C 11,3 km/h
04.05.2011 08:00 4,9 C 69 % 1018,5 hPa 0,0 l/m 4,0 km/h N-NW -0,3 C 4,9 C 10,5 km/h
04.05.2011 09:00 6,3 C 60 % 1018,5 hPa 0,0 l/m 4,0 km/h N-NW -0,9 C 6,3 C 14,5 km/h
04.05.2011 10:00 8,9 C 53 % 1018,5 hPa 0,0 l/m 5,6 km/h N-NW -0,2 C 8,9 C 17,7 km/h
04.05.2011 11:00 12,1 C 42 % 1018,2 hPa 0,0 l/m 5,6 km/h N-NW -0,6 C 12,1 C 18,5 km/h
04.05.2011 12:00 14,4 C 39 % 1018,0 hPa 0,0 l/m 6,4 km/h N-NW 0,4 C 14,4 C 18,5 km/h
04.05.2011 13:00 15,2 C 36 % 1017,7 hPa 0,0 l/m 7,2 km/h N-NW 0,2 C 14,8 C 19,3 km/h
04.05.2011 14:00 15,5 C 35 % 1017,5 hPa 0,0 l/m 8,0 km/h N-NW 0,2 C 14,7 C 22,5 km/h
04.05.2011 15:00 16,0 C 34 % 1017,5 hPa 0,0 l/m 6,4 km/h N-NW 0,2 C 15,6 C 22,5 km/h
04.05.2011 16:00 14,5 C 37 % 1017,7 hPa 0,0 l/m 4,8 km/h N-NW 0,1 C 14,5 C 15,6 km/h
04.05.2011 17:00 14,8 C 36 % 1017,8 hPa 0,0 l/m 6,0 km/h NO -0,2 C 14,7 C 16,9 km/h
04.05.2011 18:00 13,5 C 37 % 1018,3 hPa 0,0 l/m 5,0 km/h N-NW -0,8 C 13,5 C 17,3 km/h
04.05.2011 19:00 11,5 C 41 % 1018,7 hPa 0,0 l/m 3,7 km/h N -1,2 C 11,5 C 14,5 km/h
04.05.2011 20:00 10,2 C 46 % 1019,2 hPa 0,0 l/m 0,9 km/h N-NW -1,0 C 10,2 C 5,2 km/h
04.05.2011 21:00 8,7 C 53 % 1019,9 hPa 0,0 l/m 0,0 km/h N -0,4 C 8,7 C 0,0 km/h
04.05.2011 22:00 7,6 C 60 % 1020,2 hPa 0,0 l/m 0,0 km/h N 0,3 C 7,6 C 0,0 km/h
04.05.2011 23:00 6,9 C 62 % 1020,6 hPa 0,0 l/m 0,0 km/h N 0,0 C 6,9 C 0,0 km/h
05.05.2011 00:00 5,6 C 66 % 1020,8 hPa 0,0 l/m 0,0 km/h N -0,2 C 5,6 C 0,0 km/h
05.05.2011 01:00 4,8 C 68 % 1021,0 hPa 0,0 l/m 0,1 km/h N -0,5 C 4,8 C 2,0 km/h
05.05.2011 02:00 4,9 C 69 % 1021,5 hPa 0,0 l/m 1,6 km/h N-NW -0,4 C 4,9 C 5,6 km/h
05.05.2011 03:00 4,8 C 71 % 1021,9 hPa 0,0 l/m 0,7 km/h N-NW 0,0 C 4,8 C 2,8 km/h
05.05.2011 04:00 4,4 C 75 % 1022,3 hPa 0,0 l/m 1,1 km/h N-NW 0,3 C 4,4 C 4,4 km/h
05.05.2011 05:00 5,1 C 74 % 1022,7 hPa 0,0 l/m 2,8 km/h N-NW 0,9 C 5,1 C 7,6 km/h
05.05.2011 06:00 5,7 C 74 % 1023,4 hPa 0,0 l/m 2,2 km/h N-NW 1,3 C 5,7 C 6,4 km/h
05.05.2011 07:00 6,6 C 72 % 1024,2 hPa 0,0 l/m 3,9 km/h N 1,8 C 6,6 C 11,7 km/h
05.05.2011 08:00 7,3 C 65 % 1024,7 hPa 0,0 l/m 4,3 km/h N-NW 1,2 C 7,3 C 12,1 km/h
05.05.2011 09:00 8,4 C 58 % 1025,2 hPa 0,0 l/m 4,4 km/h N-NW 0,4 C 8,4 C 15,3 km/h
05.05.2011 10:00 11,4 C 46 % 1025,5 hPa 0,0 l/m 3,6 km/h N-NW 0,0 C 11,4 C 11,7 km/h
05.05.2011 11:00 13,7 C 37 % 1025,6 hPa 0,0 l/m 4,7 km/h N -0,8 C 13,7 C 14,9 km/h
05.05.2011 12:00 14,8 C 35 % 1025,6 hPa 0,0 l/m 4,1 km/h N-NO -0,7 C 14,8 C 15,7 km/h
05.05.2011 13:00 15,4 C 33 % 1025,6 hPa 0,0 l/m 3,8 km/h N-NW -0,7 C 15,4 C 13,3 km/h
05.05.2011 14:00 16,8 C 33 % 1025,5 hPa 0,0 l/m 3,8 km/h N 0,2 C 16,8 C 12,9 km/h
05.05.2011 15:00 16,8 C 32 % 1025,3 hPa 0,0 l/m 4,9 km/h N-NW -0,1 C 16,8 C 13,7 km/h
05.05.2011 16:00 17,6 C 31 % 1025,2 hPa 0,0 l/m 4,0 km/h N-NW 0,3 C 17,6 C 11,7 km/h
05.05.2011 17:00 17,7 C 31 % 1025,1 hPa 0,0 l/m 3,2 km/h N-NW 0,4 C 17,7 C 9,3 km/h
05.05.2011 18:00 16,7 C 33 % 1025,1 hPa 0,0 l/m 2,5 km/h O-NO 0,2 C 16,7 C 8,4 km/h
05.05.2011 19:00 14,7 C 36 % 1025,3 hPa 0,0 l/m 1,0 km/h N-NW -0,4 C 14,7 C 5,6 km/h
05.05.2011 20:00 12,4 C 44 % 1025,8 hPa 0,0 l/m 0,0 km/h N 0,5 C 12,4 C 0,4 km/h
05.05.2011 21:00 9,2 C 56 % 1026,4 hPa 0,0 l/m 0,0 km/h N 0,8 C 9,2 C 0,8 km/h
05.05.2011 22:00 7,0 C 62 % 1027,0 hPa 0,0 l/m 0,0 km/h N 0,2 C 7,0 C 1,2 km/h
05.05.2011 23:00 5,9 C 65 % 1027,3 hPa 0,0 l/m 0,1 km/h N -0,3 C 5,9 C 3,2 km/h
06.05.2011 00:00 5,1 C 67 % 1027,5 hPa 0,0 l/m 0,0 km/h N -0,6 C 5,1 C 0,4 km/h
06.05.2011 01:00 4,1 C 70 % 1027,5 hPa 0,0 l/m 0,0 km/h N -1,0 C 4,1 C 0,0 km/h
06.05.2011 02:00 2,9 C 72 % 1027,5 hPa 0,0 l/m 0,0 km/h N -1,7 C 2,9 C 0,0 km/h
06.05.2011 03:00 1,6 C 77 % 1027,6 hPa 0,0 l/m 0,0 km/h N -2,1 C 1,6 C 0,0 km/h
06.05.2011 04:00 1,1 C 80 % 1027,7 hPa 0,0 l/m 0,0 km/h N -2,0 C 1,1 C 0,0 km/h
06.05.2011 05:00 0,4 C 81 % 1027,7 hPa 0,0 l/m 0,0 km/h N -2,4 C 0,4 C 0,0 km/h
06.05.2011 06:00 0,4 C 83 % 1027,9 hPa 0,0 l/m 0,0 km/h N -2,1 C 0,4 C 0,4 km/h
06.05.2011 07:00 2,6 C 83 % 1027,9 hPa 0,0 l/m 0,0 km/h N 0,0 C 2,6 C 1,2 km/h
06.05.2011 08:00 5,6 C 80 % 1027,9 hPa 0,0 l/m 0,1 km/h N 2,4 C 5,6 C 3,2 km/h
06.05.2011 09:00 8,9 C 64 % 1027,5 hPa 0,0 l/m 0,5 km/h O 2,4 C 8,9 C 4,8 km/h
06.05.2011 10:00 13,4 C 48 % 1027,2 hPa 0,0 l/m 1,8 km/h O 2,5 C 13,4 C 7,6 km/h
06.05.2011 11:00 15,3 C 46 % 1027,1 hPa 0,0 l/m 2,0 km/h O 3,6 C 15,3 C 8,8 km/h
06.05.2011 12:00 16,1 C 42 % 1026,9 hPa 0,0 l/m 2,6 km/h O 3,3 C 16,1 C 6,8 km/h
06.05.2011 13:00 17,5 C 40 % 1026,5 hPa 0,0 l/m 2,3 km/h O 3,7 C 17,5 C 8,4 km/h
06.05.2011 14:00 18,0 C 40 % 1026,0 hPa 0,0 l/m 2,8 km/h O 4,1 C 18,0 C 8,8 km/h
06.05.2011 15:00 18,9 C 39 % 1025,6 hPa 0,0 l/m 2,2 km/h O 4,6 C 18,9 C 6,8 km/h
06.05.2011 16:00 19,1 C 38 % 1025,1 hPa 0,0 l/m 2,3 km/h O 4,6 C 19,1 C 6,8 km/h
06.05.2011 17:00 18,6 C 40 % 1025,0 hPa 0,0 l/m 2,4 km/h O 4,7 C 18,6 C 6,4 km/h
06.05.2011 18:00 17,9 C 41 % 1024,8 hPa 0,0 l/m 1,8 km/h O 4,5 C 17,9 C 6,0 km/h
06.05.2011 19:00 16,5 C 44 % 1024,7 hPa 0,0 l/m 0,8 km/h N 4,2 C 16,5 C 4,8 km/h
06.05.2011 20:00 15,1 C 49 % 1024,6 hPa 0,0 l/m 0,0 km/h N 4,3 C 15,1 C 0,4 km/h
06.05.2011 21:00 12,1 C 59 % 1024,5 hPa 0,0 l/m 0,0 km/h N 4,2 C 12,1 C 0,4 km/h
06.05.2011 22:00 9,7 C 67 % 1024,4 hPa 0,0 l/m 0,0 km/h N 3,9 C 9,7 C 0,0 km/h
06.05.2011 23:00 8,1 C 72 % 1024,3 hPa 0,0 l/m 0,0 km/h N 3,4 C 8,1 C 0,0 km/h
07.05.2011 00:00 7,1 C 75 % 1023,9 hPa 0,0 l/m 0,0 km/h N 3,0 C 7,1 C 0,0 km/h
07.05.2011 01:00 6,2 C 78 % 1023,7 hPa 0,0 l/m 0,0 km/h N 2,6 C 6,2 C 0,0 km/h
07.05.2011 02:00 5,4 C 80 % 1023,4 hPa 0,0 l/m 0,0 km/h N 2,2 C 5,4 C 0,0 km/h
07.05.2011 03:00 4,8 C 82 % 1023,3 hPa 0,0 l/m 0,0 km/h N 2,0 C 4,8 C 0,0 km/h
07.05.2011 04:00 4,3 C 83 % 1023,3 hPa 0,0 l/m 0,0 km/h N 1,6 C 4,3 C 0,4 km/h
07.05.2011 05:00 3,8 C 83 % 1023,6 hPa 0,0 l/m 0,0 km/h N 1,2 C 3,8 C 0,4 km/h
07.05.2011 06:00 4,1 C 83 % 1024,0 hPa 0,0 l/m 0,0 km/h N 1,5 C 4,1 C 0,0 km/h
07.05.2011 07:00 5,8 C 83 % 1024,2 hPa 0,0 l/m 0,8 km/h N 3,1 C 5,8 C 3,2 km/h
07.05.2011 08:00 8,1 C 81 % 1024,4 hPa 0,0 l/m 2,0 km/h N-NO 5,0 C 8,1 C 6,4 km/h
07.05.2011 09:00 10,7 C 66 % 1024,5 hPa 0,0 l/m 1,8 km/h N-NW 4,6 C 10,7 C 6,8 km/h
07.05.2011 10:00 15,4 C 48 % 1024,3 hPa 0,0 l/m 2,1 km/h N-NO 4,4 C 15,4 C 8,9 km/h
07.05.2011 11:00 18,8 C 40 % 1024,1 hPa 0,0 l/m 3,0 km/h NO 4,8 C 18,8 C 9,3 km/h
07.05.2011 12:00 21,2 C 34 % 1023,5 hPa 0,0 l/m 3,4 km/h N-NO 4,8 C 21,2 C 8,9 km/h
07.05.2011 13:00 22,9 C 32 % 1022,9 hPa 0,0 l/m 3,8 km/h NO 5,2 C 22,9 C 11,3 km/h
07.05.2011 14:00 24,4 C 30 % 1022,5 hPa 0,0 l/m 4,7 km/h N-NO 5,8 C 24,4 C 12,9 km/h
07.05.2011 15:00 24,2 C 29 % 1022,0 hPa 0,0 l/m 5,2 km/h NO 5,1 C 24,2 C 14,1 km/h
07.05.2011 16:00 24,5 C 26 % 1021,5 hPa 0,0 l/m 4,6 km/h N 3,9 C 24,5 C 12,5 km/h
07.05.2011 17:00 23,7 C 27 % 1021,3 hPa 0,0 l/m 4,6 km/h N-NO 3,7 C 23,7 C 13,3 km/h
07.05.2011 18:00 22,4 C 31 % 1020,8 hPa 0,0 l/m 3,7 km/h N-NW 4,3 C 22,4 C 9,7 km/h
07.05.2011 19:00 21,4 C 33 % 1020,5 hPa 0,0 l/m 1,2 km/h N 4,5 C 21,4 C 4,4 km/h
07.05.2011 20:00 18,9 C 42 % 1020,2 hPa 0,0 l/m 0,0 km/h N 5,4 C 18,9 C 0,0 km/h
07.05.2011 21:00 14,8 C 55 % 1020,8 hPa 0,0 l/m 0,0 km/h N 5,9 C 14,8 C 0,8 km/h
07.05.2011 22:00 12,4 C 61 % 1021,3 hPa 0,0 l/m 0,1 km/h N 5,1 C 12,4 C 1,6 km/h
07.05.2011 23:00 11,2 C 63 % 1021,6 hPa 0,0 l/m 0,1 km/h N 4,3 C 11,2 C 1,6 km/h
08.05.2011 00:00 10,6 C 63 % 1021,5 hPa 0,0 l/m 0,0 km/h N 3,8 C 10,6 C 1,2 km/h
08.05.2011 01:00 9,3 C 66 % 1021,2 hPa 0,0 l/m 0,0 km/h N 3,1 C 9,3 C 0,4 km/h
08.05.2011 02:00 9,3 C 62 % 1020,8 hPa 0,0 l/m 0,2 km/h N 2,2 C 9,3 C 2,8 km/h
08.05.2011 03:00 9,3 C 61 % 1020,5 hPa 0,0 l/m 0,3 km/h N 2,2 C 9,3 C 4,4 km/h
08.05.2011 04:00 9,2 C 61 % 1019,8 hPa 0,0 l/m 0,0 km/h N 2,1 C 9,2 C 1,2 km/h
08.05.2011 05:00 9,9 C 56 % 1019,5 hPa 0,0 l/m 0,7 km/h N-NW 1,6 C 9,9 C 4,4 km/h
08.05.2011 06:00 10,6 C 54 % 1019,4 hPa 0,0 l/m 3,6 km/h N-NW 1,7 C 10,6 C 8,9 km/h
08.05.2011 07:00 11,3 C 53 % 1019,2 hPa 0,0 l/m 4,8 km/h N-NW 2,1 C 11,3 C 12,9 km/h
08.05.2011 08:00 12,4 C 53 % 1019,1 hPa 0,0 l/m 4,7 km/h N-NW 3,1 C 12,4 C 13,7 km/h
08.05.2011 09:00 13,3 C 53 % 1019,1 hPa 0,0 l/m 3,6 km/h N-NW 3,9 C 13,3 C 13,3 km/h
08.05.2011 10:00 13,2 C 56 % 1019,5 hPa 0,0 l/m 3,6 km/h N-NO 4,6 C 13,2 C 10,9 km/h
08.05.2011 11:00 13,7 C 61 % 1019,8 hPa 0,0 l/m 4,6 km/h N-NO 6,3 C 13,7 C 12,9 km/h
08.05.2011 12:00 14,8 C 63 % 1020,6 hPa 0,0 l/m 6,4 km/h N-NO 7,8 C 14,7 C 16,5 km/h
08.05.2011 13:00 16,4 C 58 % 1021,1 hPa 0,0 l/m 5,8 km/h N-NW 8,0 C 16,4 C 16,1 km/h
08.05.2011 14:00 12,0 C 76 % 1023,8 hPa 1,3 l/m 2,7 km/h O-NO 7,8 C 11,8 C 8,4 km/h
08.05.2011 15:00 12,6 C 77 % 1024,6 hPa 0,0 l/m 1,8 km/h O 8,5 C 12,6 C 6,4 km/h
08.05.2011 16:00 13,8 C 68 % 1025,2 hPa 0,0 l/m 1,6 km/h O-NO 7,8 C 13,8 C 5,6 km/h
08.05.2011 17:00 15,6 C 56 % 1025,4 hPa 0,0 l/m 0,6 km/h N 6,9 C 15,6 C 5,2 km/h
08.05.2011 18:00 15,4 C 53 % 1026,0 hPa 0,0 l/m 0,3 km/h N 5,9 C 15,4 C 4,0 km/h
08.05.2011 19:00 14,7 C 54 % 1026,5 hPa 0,0 l/m 0,2 km/h N 5,6 C 14,7 C 4,0 km/h
08.05.2011 20:00 13,5 C 59 % 1026,9 hPa 0,0 l/m 0,2 km/h N 5,5 C 13,5 C 1,6 km/h
08.05.2011 21:00 11,3 C 68 % 1027,6 hPa 0,0 l/m 0,3 km/h N 5,6 C 11,3 C 3,6 km/h
08.05.2011 22:00 9,6 C 74 % 1027,7 hPa 0,0 l/m 0,3 km/h N 5,1 C 9,6 C 5,6 km/h
08.05.2011 23:00 8,7 C 75 % 1027,8 hPa 0,0 l/m 0,0 km/h N 4,6 C 8,7 C 1,6 km/h
Min-Datum _ 06.05.11 07.05.11 03.05.11 - 02.05.11 - 06.05.11 06.05.11 02.05.11
_ Min-Zeit 05:45 16:45 10:00 - 04:45 - 05:45 06:00 05:00
Minimum _ 0,2 C 24 % 1000,9 hPa - 0,0 km/h - -2,7 C 0,1 C 0,0 km/h
Max-Datum _ 07.05.11 06.05.11 06.05.11 03.05.11 03.05.11 - 03.05.11 07.05.11 03.05.11
_ Max-Zeit 15:00 07:00 06:15 02:00 18:00 - 10:45 15:00 20:00
Maximum _ 25,5 C 84 % 1028,0 hPa 1,6 l/m 13,6 km/h
N-NW
- 11,8 C 25,4 C 33,8 km/h
N
Durchschnitt _ 11,2 C 60 % 1018,5 hPa #2,9 l/m 2,3 km/h N-NW 3,0 C 11,1 C 7,7 km/h